Tropical Cyclones
[Index]
Main Index Home Page Stock Weather Photos Extreme Storms Discussion Storm News and Storm Chasing Reports Tropical Cyclones / Hurricanes / Typhoons Weather Data and Links Wild Fires / Bushfires Weather Observation Techniques Weather Picture Catalogue Tornado Pictures and Reports Stock Video Footage and DVDs for sale
Season 2009-2010 Tropical Cyclone IMANI Track Map
Season 2009-2010 Summaries: [BoM-AU] [JTWC-AU] [JTWC-SIO] [JTWC-SPAC] [JTWC-SH]
<<- Previous TC | JTWC 2009-2010 Season | Next TC ->>

click for intensity scale information  Lat/long Grid: Show Hide

 Date Labels: Show Hide

Joint Typhoon Warning Centre Cyclone Data

Name: IMANI

21 Mar 2010 06:00 UTC to 29 Mar 2010 12:00 UTC

    date/time    lat    long     hPa   cat  kts
2010-03-21 06    7.5    88.5    1010         15          
2010-03-21 12    7.4    89.0    1010         15          
2010-03-21 18    8.3    89.5    1007         20          
2010-03-22 00    9.5    89.6    1000         30          
2010-03-22 06   10.4    89.5    1000         30          
2010-03-22 12   11.0    89.4    1000         30          
2010-03-22 18   11.6    89.3     996         35          
2010-03-23 00   12.3    88.7     996         35          
2010-03-23 06   12.8    88.3     993    1    40          
2010-03-23 12   13.3    87.9     989    1    45          
2010-03-23 18   14.0    87.4     985    1    50          
2010-03-24 00   14.8    86.8     982    2    55          
2010-03-24 00   14.8    86.8     982    2    55          
2010-03-24 06   15.7    86.3     978    2    60          
2010-03-24 06   15.7    86.3     978    2    60          
2010-03-24 12   16.7    85.8     974    2    65          
2010-03-24 12   16.7    85.8     974    2    65          
2010-03-24 18   17.6    85.3     970    2    70          
2010-03-24 18   17.6    85.3     970    2    70          
2010-03-25 00   18.6    85.4     967    3    75          
2010-03-25 00   18.6    85.4     967    3    75          
2010-03-25 00   18.6    85.4     967    3    75          
2010-03-25 06   19.3    85.6     967    3    75          
2010-03-25 06   19.3    85.6     967    3    75          
2010-03-25 06   19.3    85.6     967    3    75          
2010-03-25 12   20.0    85.8     963    3    80          
2010-03-25 12   20.0    85.8     963    3    80          
2010-03-25 12   20.0    85.8     963    3    80          
2010-03-25 18   20.4    85.9     974    2    65          
2010-03-25 18   20.4    85.9     974    2    65          
2010-03-26 00   20.7    86.1     985    1    50          
2010-03-26 06   21.1    86.3     989    1    45          
2010-03-26 12   21.3    86.7     996         35          
2010-03-26 18   21.2    86.5    1000         30          
2010-03-27 00   21.4    86.5    1000         30          
2010-03-27 06   21.5    86.4    1000         30          
2010-03-27 12   22.0    86.0    1000         30          
2010-03-27 18   22.3    85.1    1000         30          
2010-03-28 00   22.4    84.2    1000         30          
2010-03-28 06   23.0    83.4    1000         30          
2010-03-28 12   23.8    83.0    1004         25          
2010-03-28 18   24.2    83.2    1004         25          
2010-03-29 00   24.4    83.4    1007         20          
2010-03-29 06   24.7    83.5    1007         20          
2010-03-29 12   25.0    83.8    1007         20          
Winds are 1-min average.

Tropical cyclone tracks developed by Michael Bath using data from the Joint Typhoon Warning Centre Best Tracks and Google Maps.


[Australian Severe Weather index] [Copyright Notice] [Email Contacts] [Search This Site] [Privacy Policy]
Document: tropical_cyclone_imani.htm Updated: 28 June 2017